sensor_id;sensor_type;location;lat;lon;timestamp;P1;durP1;ratioP1;P2;durP2;ratioP2
79677;SDS011;69145;45.544;10.214;2023-07-20T00:00:38;8.48;;;6.00;;
79677;SDS011;69145;45.544;10.214;2023-07-20T00:03:10;9.07;;;5.43;;
79677;SDS011;69145;45.544;10.214;2023-07-20T00:05:41;8.32;;;6.65;;
79677;SDS011;69145;45.544;10.214;2023-07-20T00:08:07;8.45;;;5.90;;
79677;SDS011;69145;45.544;10.214;2023-07-20T00:10:33;12.50;;;6.70;;
79677;SDS011;69145;45.544;10.214;2023-07-20T00:12:58;13.95;;;7.25;;
79677;SDS011;69145;45.544;10.214;2023-07-20T00:15:24;10.93;;;7.80;;
79677;SDS011;69145;45.544;10.214;2023-07-20T00:17:49;12.95;;;7.93;;
79677;SDS011;69145;45.544;10.214;2023-07-20T00:20:15;12.50;;;7.73;;
79677;SDS011;69145;45.544;10.214;2023-07-20T00:22:40;10.23;;;6.90;;
79677;SDS011;69145;45.544;10.214;2023-07-20T00:25:05;11.38;;;7.18;;
79677;SDS011;69145;45.544;10.214;2023-07-20T00:27:31;10.82;;;6.97;;
79677;SDS011;69145;45.544;10.214;2023-07-20T00:29:57;10.23;;;6.35;;
79677;SDS011;69145;45.544;10.214;2023-07-20T00:32:22;13.10;;;7.75;;
79677;SDS011;69145;45.544;10.214;2023-07-20T00:34:47;12.18;;;7.18;;
79677;SDS011;69145;45.544;10.214;2023-07-20T00:37:13;10.52;;;6.53;;
79677;SDS011;69145;45.544;10.214;2023-07-20T00:39:38;11.38;;;7.57;;
79677;SDS011;69145;45.544;10.214;2023-07-20T00:42:04;9.00;;;6.40;;
79677;SDS011;69145;45.544;10.214;2023-07-20T00:44:30;9.63;;;7.10;;
79677;SDS011;69145;45.544;10.214;2023-07-20T00:46:55;9.05;;;6.50;;
79677;SDS011;69145;45.544;10.214;2023-07-20T00:49:21;9.25;;;6.80;;
79677;SDS011;69145;45.544;10.214;2023-07-20T00:51:47;12.02;;;7.85;;
79677;SDS011;69145;45.544;10.214;2023-07-20T00:54:14;11.68;;;7.82;;
79677;SDS011;69145;45.544;10.214;2023-07-20T00:56:40;10.43;;;6.82;;
79677;SDS011;69145;45.544;10.214;2023-07-20T00:59:05;9.20;;;7.28;;
79677;SDS011;69145;45.544;10.214;2023-07-20T01:01:32;8.80;;;7.15;;
79677;SDS011;69145;45.544;10.214;2023-07-20T01:03:57;9.63;;;7.43;;
79677;SDS011;69145;45.544;10.214;2023-07-20T01:14:24;9.43;;;6.63;;
79677;SDS011;69145;45.544;10.214;2023-07-20T01:16:50;10.98;;;7.13;;
79677;SDS011;69145;45.544;10.214;2023-07-20T01:19:17;10.05;;;7.03;;
79677;SDS011;69145;45.544;10.214;2023-07-20T01:27:16;10.57;;;7.45;;
79677;SDS011;69145;45.544;10.214;2023-07-20T01:32:52;11.20;;;7.90;;
79677;SDS011;69145;45.544;10.214;2023-07-20T01:35:20;9.75;;;7.68;;
79677;SDS011;69145;45.544;10.214;2023-07-20T01:37:48;10.35;;;7.63;;
79677;SDS011;69145;45.544;10.214;2023-07-20T01:40:15;11.43;;;7.18;;
79677;SDS011;69145;45.544;10.214;2023-07-20T01:42:45;8.50;;;7.13;;
79677;SDS011;69145;45.544;10.214;2023-07-20T01:45:11;10.18;;;6.93;;
79677;SDS011;69145;45.544;10.214;2023-07-20T01:47:36;10.15;;;6.32;;
79677;SDS011;69145;45.544;10.214;2023-07-20T01:50:02;10.25;;;6.75;;
79677;SDS011;69145;45.544;10.214;2023-07-20T01:52:27;9.20;;;6.85;;
79677;SDS011;69145;45.544;10.214;2023-07-20T01:54:53;8.32;;;6.13;;
79677;SDS011;69145;45.544;10.214;2023-07-20T01:57:18;8.40;;;6.03;;
79677;SDS011;69145;45.544;10.214;2023-07-20T01:59:44;9.55;;;5.72;;
79677;SDS011;69145;45.544;10.214;2023-07-20T02:02:09;8.68;;;6.03;;
79677;SDS011;69145;45.544;10.214;2023-07-20T02:04:34;8.25;;;6.25;;
79677;SDS011;69145;45.544;10.214;2023-07-20T02:07:01;8.15;;;6.20;;
79677;SDS011;69145;45.544;10.214;2023-07-20T02:09:26;9.60;;;6.30;;
79677;SDS011;69145;45.544;10.214;2023-07-20T02:11:51;9.50;;;7.03;;
79677;SDS011;69145;45.544;10.214;2023-07-20T02:14:17;10.70;;;7.20;;
79677;SDS011;69145;45.544;10.214;2023-07-20T02:16:42;9.30;;;7.07;;
79677;SDS011;69145;45.544;10.214;2023-07-20T02:19:07;10.83;;;6.87;;
79677;SDS011;69145;45.544;10.214;2023-07-20T02:21:33;8.90;;;6.70;;
79677;SDS011;69145;45.544;10.214;2023-07-20T02:23:59;9.45;;;6.95;;
79677;SDS011;69145;45.544;10.214;2023-07-20T02:26:24;10.57;;;6.85;;
79677;SDS011;69145;45.544;10.214;2023-07-20T02:28:50;10.80;;;7.10;;
79677;SDS011;69145;45.544;10.214;2023-07-20T02:31:16;10.48;;;7.28;;
79677;SDS011;69145;45.544;10.214;2023-07-20T02:33:41;11.35;;;7.72;;
79677;SDS011;69145;45.544;10.214;2023-07-20T02:36:06;10.43;;;7.15;;
79677;SDS011;69145;45.544;10.214;2023-07-20T02:38:32;9.55;;;6.40;;
79677;SDS011;69145;45.544;10.214;2023-07-20T02:40:57;10.48;;;7.25;;
79677;SDS011;69145;45.544;10.214;2023-07-20T02:43:25;10.73;;;7.03;;
79677;SDS011;69145;45.544;10.214;2023-07-20T02:45:51;9.95;;;7.05;;
79677;SDS011;69145;45.544;10.214;2023-07-20T02:48:18;11.02;;;7.38;;
79677;SDS011;69145;45.544;10.214;2023-07-20T02:50:43;10.80;;;6.50;;
79677;SDS011;69145;45.544;10.214;2023-07-20T02:53:09;11.35;;;7.10;;
79677;SDS011;69145;45.544;10.214;2023-07-20T02:55:34;11.70;;;7.20;;
79677;SDS011;69145;45.544;10.214;2023-07-20T02:57:59;11.73;;;7.27;;
79677;SDS011;69145;45.544;10.214;2023-07-20T03:00:25;9.75;;;7.63;;
79677;SDS011;69145;45.544;10.214;2023-07-20T03:02:51;12.02;;;7.60;;
79677;SDS011;69145;45.544;10.214;2023-07-20T03:05:20;11.82;;;7.43;;
79677;SDS011;69145;45.544;10.214;2023-07-20T03:07:45;10.02;;;7.20;;
79677;SDS011;69145;45.544;10.214;2023-07-20T03:10:11;8.25;;;7.03;;
79677;SDS011;69145;45.544;10.214;2023-07-20T03:12:36;9.73;;;6.28;;
79677;SDS011;69145;45.544;10.214;2023-07-20T03:15:02;9.63;;;6.93;;
79677;SDS011;69145;45.544;10.214;2023-07-20T03:17:28;8.63;;;7.35;;
79677;SDS011;69145;45.544;10.214;2023-07-20T03:19:53;11.07;;;7.30;;
79677;SDS011;69145;45.544;10.214;2023-07-20T03:22:19;12.15;;;7.55;;
79677;SDS011;69145;45.544;10.214;2023-07-20T03:24:44;13.45;;;7.70;;
79677;SDS011;69145;45.544;10.214;2023-07-20T03:27:09;10.97;;;7.20;;
79677;SDS011;69145;45.544;10.214;2023-07-20T03:29:35;10.00;;;6.97;;
79677;SDS011;69145;45.544;10.214;2023-07-20T03:32:00;10.35;;;6.80;;
79677;SDS011;69145;45.544;10.214;2023-07-20T03:34:26;9.13;;;7.40;;
79677;SDS011;69145;45.544;10.214;2023-07-20T03:36:51;10.75;;;8.20;;
79677;SDS011;69145;45.544;10.214;2023-07-20T03:39:16;9.38;;;6.72;;
79677;SDS011;69145;45.544;10.214;2023-07-20T03:41:42;11.73;;;9.10;;
79677;SDS011;69145;45.544;10.214;2023-07-20T03:44:08;11.15;;;9.07;;
79677;SDS011;69145;45.544;10.214;2023-07-20T03:46:33;12.45;;;9.25;;
79677;SDS011;69145;45.544;10.214;2023-07-20T03:48:59;12.95;;;10.07;;
79677;SDS011;69145;45.544;10.214;2023-07-20T03:51:25;14.52;;;10.48;;
79677;SDS011;69145;45.544;10.214;2023-07-20T03:53:51;13.32;;;10.65;;
79677;SDS011;69145;45.544;10.214;2023-07-20T03:56:16;11.45;;;10.15;;
79677;SDS011;69145;45.544;10.214;2023-07-20T03:58:41;14.27;;;11.13;;
79677;SDS011;69145;45.544;10.214;2023-07-20T04:01:07;15.00;;;11.90;;
79677;SDS011;69145;45.544;10.214;2023-07-20T04:03:33;16.63;;;12.35;;
79677;SDS011;69145;45.544;10.214;2023-07-20T04:05:58;17.67;;;11.88;;
79677;SDS011;69145;45.544;10.214;2023-07-20T04:08:23;14.50;;;11.90;;
79677;SDS011;69145;45.544;10.214;2023-07-20T04:10:52;15.82;;;12.10;;
79677;SDS011;69145;45.544;10.214;2023-07-20T04:13:17;15.65;;;11.88;;
79677;SDS011;69145;45.544;10.214;2023-07-20T04:15:43;16.95;;;13.10;;
79677;SDS011;69145;45.544;10.214;2023-07-20T04:18:08;16.83;;;12.57;;
79677;SDS011;69145;45.544;10.214;2023-07-20T04:20:33;16.88;;;12.82;;
79677;SDS011;69145;45.544;10.214;2023-07-20T04:22:59;17.03;;;12.50;;
79677;SDS011;69145;45.544;10.214;2023-07-20T04:25:24;17.42;;;13.43;;
79677;SDS011;69145;45.544;10.214;2023-07-20T04:27:49;15.23;;;13.33;;
79677;SDS011;69145;45.544;10.214;2023-07-20T04:30:17;17.40;;;12.20;;
79677;SDS011;69145;45.544;10.214;2023-07-20T04:32:45;14.77;;;11.40;;
79677;SDS011;69145;45.544;10.214;2023-07-20T04:35:16;13.38;;;10.65;;
79677;SDS011;69145;45.544;10.214;2023-07-20T04:38:01;12.18;;;8.65;;
79677;SDS011;69145;45.544;10.214;2023-07-20T04:40:27;13.15;;;9.10;;
79677;SDS011;69145;45.544;10.214;2023-07-20T04:42:52;14.57;;;8.63;;
79677;SDS011;69145;45.544;10.214;2023-07-20T04:45:18;12.15;;;8.43;;
79677;SDS011;69145;45.544;10.214;2023-07-20T04:47:44;10.68;;;8.05;;
79677;SDS011;69145;45.544;10.214;2023-07-20T04:50:09;10.95;;;7.45;;
79677;SDS011;69145;45.544;10.214;2023-07-20T04:52:35;10.65;;;8.27;;
79677;SDS011;69145;45.544;10.214;2023-07-20T04:55:00;12.38;;;8.05;;
79677;SDS011;69145;45.544;10.214;2023-07-20T04:57:26;12.18;;;8.65;;
79677;SDS011;69145;45.544;10.214;2023-07-20T04:59:51;12.98;;;7.97;;
79677;SDS011;69145;45.544;10.214;2023-07-20T05:02:17;12.32;;;8.40;;
79677;SDS011;69145;45.544;10.214;2023-07-20T05:04:42;12.60;;;7.78;;
79677;SDS011;69145;45.544;10.214;2023-07-20T05:07:07;9.83;;;7.77;;
79677;SDS011;69145;45.544;10.214;2023-07-20T05:09:33;13.50;;;8.47;;
79677;SDS011;69145;45.544;10.214;2023-07-20T05:11:58;9.50;;;7.68;;
79677;SDS011;69145;45.544;10.214;2023-07-20T05:14:24;10.40;;;7.18;;
79677;SDS011;69145;45.544;10.214;2023-07-20T05:16:49;10.48;;;8.02;;
79677;SDS011;69145;45.544;10.214;2023-07-20T05:19:15;9.90;;;8.30;;
79677;SDS011;69145;45.544;10.214;2023-07-20T05:21:40;9.77;;;7.97;;
79677;SDS011;69145;45.544;10.214;2023-07-20T05:24:05;12.77;;;8.27;;
79677;SDS011;69145;45.544;10.214;2023-07-20T05:26:31;11.20;;;7.95;;
79677;SDS011;69145;45.544;10.214;2023-07-20T05:29:12;11.82;;;8.25;;
79677;SDS011;69145;45.544;10.214;2023-07-20T05:31:37;10.70;;;7.60;;
79677;SDS011;69145;45.544;10.214;2023-07-20T05:34:02;10.63;;;7.90;;
79677;SDS011;69145;45.544;10.214;2023-07-20T05:36:28;10.90;;;8.27;;
79677;SDS011;69145;45.544;10.214;2023-07-20T05:38:53;10.50;;;8.00;;
79677;SDS011;69145;45.544;10.214;2023-07-20T05:41:18;13.05;;;8.35;;
79677;SDS011;69145;45.544;10.214;2023-07-20T05:43:46;10.73;;;7.15;;
79677;SDS011;69145;45.544;10.214;2023-07-20T05:46:12;10.63;;;8.15;;
79677;SDS011;69145;45.544;10.214;2023-07-20T05:51:49;12.00;;;8.95;;
79677;SDS011;69145;45.544;10.214;2023-07-20T05:54:14;12.35;;;9.73;;
79677;SDS011;69145;45.544;10.214;2023-07-20T05:56:39;13.55;;;10.73;;
79677;SDS011;69145;45.544;10.214;2023-07-20T05:59:05;14.38;;;10.45;;
79677;SDS011;69145;45.544;10.214;2023-07-20T06:01:30;15.60;;;11.53;;
79677;SDS011;69145;45.544;10.214;2023-07-20T06:03:55;15.80;;;12.17;;
79677;SDS011;69145;45.544;10.214;2023-07-20T06:06:21;16.60;;;12.40;;
79677;SDS011;69145;45.544;10.214;2023-07-20T06:08:46;20.48;;;12.40;;
79677;SDS011;69145;45.544;10.214;2023-07-20T06:11:12;16.67;;;13.57;;
79677;SDS011;69145;45.544;10.214;2023-07-20T06:13:37;16.53;;;12.33;;
79677;SDS011;69145;45.544;10.214;2023-07-20T06:16:03;17.85;;;13.05;;
79677;SDS011;69145;45.544;10.214;2023-07-20T06:18:31;19.23;;;12.90;;
79677;SDS011;69145;45.544;10.214;2023-07-20T06:20:57;15.52;;;12.50;;
79677;SDS011;69145;45.544;10.214;2023-07-20T06:23:22;16.97;;;12.63;;
79677;SDS011;69145;45.544;10.214;2023-07-20T06:25:47;17.90;;;12.30;;
79677;SDS011;69145;45.544;10.214;2023-07-20T06:28:13;16.13;;;12.82;;
79677;SDS011;69145;45.544;10.214;2023-07-20T06:30:39;17.00;;;11.93;;
79677;SDS011;69145;45.544;10.214;2023-07-20T06:33:05;17.88;;;12.60;;
79677;SDS011;69145;45.544;10.214;2023-07-20T06:35:30;17.88;;;12.90;;
79677;SDS011;69145;45.544;10.214;2023-07-20T06:37:56;15.23;;;11.43;;
79677;SDS011;69145;45.544;10.214;2023-07-20T06:40:25;17.80;;;12.50;;
79677;SDS011;69145;45.544;10.214;2023-07-20T06:42:51;15.95;;;11.73;;
79677;SDS011;69145;45.544;10.214;2023-07-20T06:45:19;18.00;;;13.35;;
79677;SDS011;69145;45.544;10.214;2023-07-20T06:47:44;19.13;;;13.67;;
79677;SDS011;69145;45.544;10.214;2023-07-20T06:50:52;15.53;;;12.50;;
79677;SDS011;69145;45.544;10.214;2023-07-20T06:52:58;18.10;;;12.68;;
79677;SDS011;69145;45.544;10.214;2023-07-20T06:55:24;15.68;;;12.10;;
79677;SDS011;69145;45.544;10.214;2023-07-20T06:57:50;19.05;;;12.52;;
79677;SDS011;69145;45.544;10.214;2023-07-20T07:00:16;16.63;;;13.32;;
79677;SDS011;69145;45.544;10.214;2023-07-20T07:02:42;17.80;;;12.68;;
79677;SDS011;69145;45.544;10.214;2023-07-20T07:05:07;17.90;;;12.77;;
79677;SDS011;69145;45.544;10.214;2023-07-20T07:07:33;16.80;;;11.95;;
79677;SDS011;69145;45.544;10.214;2023-07-20T07:10:00;17.43;;;12.00;;
79677;SDS011;69145;45.544;10.214;2023-07-20T07:12:26;16.90;;;11.95;;
79677;SDS011;69145;45.544;10.214;2023-07-20T07:14:51;15.82;;;12.40;;
79677;SDS011;69145;45.544;10.214;2023-07-20T07:17:17;19.80;;;14.18;;
79677;SDS011;69145;45.544;10.214;2023-07-20T07:19:43;20.03;;;13.17;;
79677;SDS011;69145;45.544;10.214;2023-07-20T07:22:09;17.40;;;12.70;;
79677;SDS011;69145;45.544;10.214;2023-07-20T07:24:35;19.25;;;13.15;;
79677;SDS011;69145;45.544;10.214;2023-07-20T07:27:01;15.32;;;11.93;;
79677;SDS011;69145;45.544;10.214;2023-07-20T07:29:27;17.40;;;11.80;;
79677;SDS011;69145;45.544;10.214;2023-07-20T07:31:52;17.88;;;12.30;;
79677;SDS011;69145;45.544;10.214;2023-07-20T07:34:18;17.23;;;11.47;;
79677;SDS011;69145;45.544;10.214;2023-07-20T07:36:43;20.80;;;13.60;;
79677;SDS011;69145;45.544;10.214;2023-07-20T07:39:09;17.02;;;12.70;;
79677;SDS011;69145;45.544;10.214;2023-07-20T07:41:35;15.00;;;12.07;;
79677;SDS011;69145;45.544;10.214;2023-07-20T07:44:00;17.90;;;12.33;;
79677;SDS011;69145;45.544;10.214;2023-07-20T07:46:26;14.63;;;11.68;;
79677;SDS011;69145;45.544;10.214;2023-07-20T07:48:51;18.07;;;12.07;;
79677;SDS011;69145;45.544;10.214;2023-07-20T07:51:16;16.60;;;12.07;;
79677;SDS011;69145;45.544;10.214;2023-07-20T07:53:42;16.08;;;11.40;;
79677;SDS011;69145;45.544;10.214;2023-07-20T07:56:08;16.58;;;12.82;;
79677;SDS011;69145;45.544;10.214;2023-07-20T07:58:34;17.75;;;11.85;;
79677;SDS011;69145;45.544;10.214;2023-07-20T08:00:59;17.15;;;12.13;;
79677;SDS011;69145;45.544;10.214;2023-07-20T08:03:25;17.55;;;12.30;;
79677;SDS011;69145;45.544;10.214;2023-07-20T08:05:51;16.38;;;12.50;;
79677;SDS011;69145;45.544;10.214;2023-07-20T08:08:18;17.02;;;11.65;;
79677;SDS011;69145;45.544;10.214;2023-07-20T08:10:44;17.80;;;12.73;;
79677;SDS011;69145;45.544;10.214;2023-07-20T08:13:09;18.30;;;12.23;;
79677;SDS011;69145;45.544;10.214;2023-07-20T08:15:35;14.05;;;12.10;;
79677;SDS011;69145;45.544;10.214;2023-07-20T08:18:00;15.50;;;12.32;;
79677;SDS011;69145;45.544;10.214;2023-07-20T08:20:25;15.32;;;13.00;;
79677;SDS011;69145;45.544;10.214;2023-07-20T08:22:52;15.70;;;12.43;;
79677;SDS011;69145;45.544;10.214;2023-07-20T08:25:19;16.58;;;12.38;;
79677;SDS011;69145;45.544;10.214;2023-07-20T08:27:44;16.83;;;12.47;;
79677;SDS011;69145;45.544;10.214;2023-07-20T08:30:11;19.20;;;11.50;;
79677;SDS011;69145;45.544;10.214;2023-07-20T08:32:36;17.67;;;12.52;;
79677;SDS011;69145;45.544;10.214;2023-07-20T08:35:02;20.57;;;13.73;;
79677;SDS011;69145;45.544;10.214;2023-07-20T08:37:27;18.45;;;13.60;;
79677;SDS011;69145;45.544;10.214;2023-07-20T08:39:53;16.70;;;12.82;;
79677;SDS011;69145;45.544;10.214;2023-07-20T08:42:18;16.10;;;13.27;;
79677;SDS011;69145;45.544;10.214;2023-07-20T08:44:43;19.03;;;12.73;;
79677;SDS011;69145;45.544;10.214;2023-07-20T08:47:11;18.33;;;13.40;;
79677;SDS011;69145;45.544;10.214;2023-07-20T08:49:38;16.00;;;12.68;;
79677;SDS011;69145;45.544;10.214;2023-07-20T08:52:05;19.05;;;13.05;;
79677;SDS011;69145;45.544;10.214;2023-07-20T08:54:31;18.00;;;13.10;;
79677;SDS011;69145;45.544;10.214;2023-07-20T08:57:03;17.38;;;12.85;;
79677;SDS011;69145;45.544;10.214;2023-07-20T08:59:29;21.77;;;13.05;;
79677;SDS011;69145;45.544;10.214;2023-07-20T09:01:56;15.68;;;11.93;;
79677;SDS011;69145;45.544;10.214;2023-07-20T09:04:23;17.42;;;12.35;;
79677;SDS011;69145;45.544;10.214;2023-07-20T09:06:48;17.55;;;12.40;;
79677;SDS011;69145;45.544;10.214;2023-07-20T09:09:14;15.07;;;11.75;;
79677;SDS011;69145;45.544;10.214;2023-07-20T09:11:40;15.70;;;12.07;;
79677;SDS011;69145;45.544;10.214;2023-07-20T09:14:06;15.63;;;10.85;;
79677;SDS011;69145;45.544;10.214;2023-07-20T09:16:32;20.45;;;11.95;;
79677;SDS011;69145;45.544;10.214;2023-07-20T09:19:11;15.85;;;11.50;;
79677;SDS011;69145;45.544;10.214;2023-07-20T09:21:36;14.45;;;11.20;;
79677;SDS011;69145;45.544;10.214;2023-07-20T09:24:02;17.65;;;11.38;;
79677;SDS011;69145;45.544;10.214;2023-07-20T09:26:27;16.40;;;11.07;;
79677;SDS011;69145;45.544;10.214;2023-07-20T09:28:53;14.73;;;11.17;;
79677;SDS011;69145;45.544;10.214;2023-07-20T09:31:20;15.55;;;11.05;;
79677;SDS011;69145;45.544;10.214;2023-07-20T09:33:47;14.35;;;11.20;;
79677;SDS011;69145;45.544;10.214;2023-07-20T09:36:13;15.18;;;11.65;;
79677;SDS011;69145;45.544;10.214;2023-07-20T09:38:41;15.43;;;11.43;;
79677;SDS011;69145;45.544;10.214;2023-07-20T09:41:08;14.98;;;9.57;;
79677;SDS011;69145;45.544;10.214;2023-07-20T09:43:38;15.25;;;11.63;;
79677;SDS011;69145;45.544;10.214;2023-07-20T09:46:04;15.25;;;11.52;;
79677;SDS011;69145;45.544;10.214;2023-07-20T09:48:30;16.25;;;11.38;;
79677;SDS011;69145;45.544;10.214;2023-07-20T09:50:55;13.65;;;11.43;;
79677;SDS011;69145;45.544;10.214;2023-07-20T09:53:21;15.18;;;11.48;;
79677;SDS011;69145;45.544;10.214;2023-07-20T09:55:49;13.32;;;11.52;;
79677;SDS011;69145;45.544;10.214;2023-07-20T09:58:15;15.73;;;11.32;;
79677;SDS011;69145;45.544;10.214;2023-07-20T10:00:42;13.38;;;10.35;;
79677;SDS011;69145;45.544;10.214;2023-07-20T10:03:11;13.80;;;10.88;;
79677;SDS011;69145;45.544;10.214;2023-07-20T10:05:43;15.25;;;11.20;;
79677;SDS011;69145;45.544;10.214;2023-07-20T10:08:11;14.77;;;11.57;;
79677;SDS011;69145;45.544;10.214;2023-07-20T10:10:38;13.38;;;10.45;;
79677;SDS011;69145;45.544;10.214;2023-07-20T10:13:06;16.77;;;12.43;;
79677;SDS011;69145;45.544;10.214;2023-07-20T10:15:43;13.93;;;10.27;;
79677;SDS011;69145;45.544;10.214;2023-07-20T10:18:17;13.02;;;10.82;;
79677;SDS011;69145;45.544;10.214;2023-07-20T10:20:48;13.48;;;10.57;;
79677;SDS011;69145;45.544;10.214;2023-07-20T10:23:16;15.48;;;10.63;;
79677;SDS011;69145;45.544;10.214;2023-07-20T10:25:42;13.60;;;10.27;;
79677;SDS011;69145;45.544;10.214;2023-07-20T10:28:08;12.05;;;10.45;;
79677;SDS011;69145;45.544;10.214;2023-07-20T10:30:35;14.45;;;10.75;;
79677;SDS011;69145;45.544;10.214;2023-07-20T10:33:02;21.67;;;10.07;;
79677;SDS011;69145;45.544;10.214;2023-07-20T10:35:29;14.02;;;10.68;;
79677;SDS011;69145;45.544;10.214;2023-07-20T10:37:56;15.43;;;9.57;;
79677;SDS011;69145;45.544;10.214;2023-07-20T10:45:57;14.85;;;10.98;;
79677;SDS011;69145;45.544;10.214;2023-07-20T10:48:21;15.27;;;10.32;;
79677;SDS011;69145;45.544;10.214;2023-07-20T10:53:39;13.13;;;10.55;;
79677;SDS011;69145;45.544;10.214;2023-07-20T10:59:36;15.52;;;10.80;;
79677;SDS011;69145;45.544;10.214;2023-07-20T11:02:11;13.70;;;10.77;;
79677;SDS011;69145;45.544;10.214;2023-07-20T11:04:40;16.77;;;11.43;;
79677;SDS011;69145;45.544;10.214;2023-07-20T11:07:07;13.05;;;10.60;;
79677;SDS011;69145;45.544;10.214;2023-07-20T11:09:34;16.17;;;10.95;;
79677;SDS011;69145;45.544;10.214;2023-07-20T11:12:10;14.48;;;10.65;;
79677;SDS011;69145;45.544;10.214;2023-07-20T11:14:40;14.40;;;11.15;;
79677;SDS011;69145;45.544;10.214;2023-07-20T11:17:12;13.35;;;10.68;;
79677;SDS011;69145;45.544;10.214;2023-07-20T11:19:39;16.05;;;11.20;;
79677;SDS011;69145;45.544;10.214;2023-07-20T11:22:05;16.02;;;10.40;;
79677;SDS011;69145;45.544;10.214;2023-07-20T11:24:38;13.88;;;11.85;;
79677;SDS011;69145;45.544;10.214;2023-07-20T11:27:04;12.95;;;10.90;;
79677;SDS011;69145;45.544;10.214;2023-07-20T11:29:30;15.13;;;11.35;;
79677;SDS011;69145;45.544;10.214;2023-07-20T11:31:56;13.23;;;10.65;;
79677;SDS011;69145;45.544;10.214;2023-07-20T11:34:24;13.88;;;10.32;;
79677;SDS011;69145;45.544;10.214;2023-07-20T11:36:50;14.23;;;10.38;;
79677;SDS011;69145;45.544;10.214;2023-07-20T11:39:17;14.45;;;9.25;;
79677;SDS011;69145;45.544;10.214;2023-07-20T11:41:47;16.02;;;11.38;;
79677;SDS011;69145;45.544;10.214;2023-07-20T11:44:17;17.13;;;9.82;;
79677;SDS011;69145;45.544;10.214;2023-07-20T11:46:43;15.65;;;10.75;;
79677;SDS011;69145;45.544;10.214;2023-07-20T11:49:10;13.00;;;10.35;;
79677;SDS011;69145;45.544;10.214;2023-07-20T11:51:36;13.82;;;10.65;;
79677;SDS011;69145;45.544;10.214;2023-07-20T11:54:03;15.80;;;10.98;;
79677;SDS011;69145;45.544;10.214;2023-07-20T11:56:31;14.63;;;10.07;;
79677;SDS011;69145;45.544;10.214;2023-07-20T11:58:59;13.32;;;10.60;;
79677;SDS011;69145;45.544;10.214;2023-07-20T12:01:27;15.88;;;10.38;;
79677;SDS011;69145;45.544;10.214;2023-07-20T12:03:57;13.95;;;10.98;;
79677;SDS011;69145;45.544;10.214;2023-07-20T12:06:24;15.70;;;10.95;;
79677;SDS011;69145;45.544;10.214;2023-07-20T12:08:50;17.20;;;11.40;;
79677;SDS011;69145;45.544;10.214;2023-07-20T12:11:35;13.93;;;10.60;;
79677;SDS011;69145;45.544;10.214;2023-07-20T12:14:02;15.18;;;10.88;;
79677;SDS011;69145;45.544;10.214;2023-07-20T12:16:29;13.05;;;10.82;;
79677;SDS011;69145;45.544;10.214;2023-07-20T12:19:02;15.07;;;11.63;;
79677;SDS011;69145;45.544;10.214;2023-07-20T12:21:31;14.35;;;10.75;;
79677;SDS011;69145;45.544;10.214;2023-07-20T12:23:58;15.32;;;11.23;;
79677;SDS011;69145;45.544;10.214;2023-07-20T12:26:24;16.05;;;11.52;;
79677;SDS011;69145;45.544;10.214;2023-07-20T12:28:50;13.90;;;10.98;;
79677;SDS011;69145;45.544;10.214;2023-07-20T12:31:16;13.10;;;9.60;;
79677;SDS011;69145;45.544;10.214;2023-07-20T12:33:42;12.68;;;10.75;;
79677;SDS011;69145;45.544;10.214;2023-07-20T12:36:08;14.15;;;9.80;;
79677;SDS011;69145;45.544;10.214;2023-07-20T12:38:35;13.30;;;9.88;;
79677;SDS011;69145;45.544;10.214;2023-07-20T12:41:01;11.32;;;9.20;;
79677;SDS011;69145;45.544;10.214;2023-07-20T12:43:27;13.00;;;9.13;;
79677;SDS011;69145;45.544;10.214;2023-07-20T12:45:53;12.88;;;9.30;;
79677;SDS011;69145;45.544;10.214;2023-07-20T12:48:19;12.95;;;8.52;;
79677;SDS011;69145;45.544;10.214;2023-07-20T12:50:45;14.90;;;9.90;;
79677;SDS011;69145;45.544;10.214;2023-07-20T12:53:11;14.07;;;9.32;;
79677;SDS011;69145;45.544;10.214;2023-07-20T12:55:37;10.87;;;9.40;;
79677;SDS011;69145;45.544;10.214;2023-07-20T12:58:02;13.20;;;9.75;;
79677;SDS011;69145;45.544;10.214;2023-07-20T13:00:28;11.03;;;9.70;;
79677;SDS011;69145;45.544;10.214;2023-07-20T13:02:53;12.20;;;8.68;;
79677;SDS011;69145;45.544;10.214;2023-07-20T13:05:19;14.60;;;9.35;;
79677;SDS011;69145;45.544;10.214;2023-07-20T13:07:44;11.15;;;9.63;;
79677;SDS011;69145;45.544;10.214;2023-07-20T13:10:11;12.90;;;9.38;;
79677;SDS011;69145;45.544;10.214;2023-07-20T13:12:37;10.63;;;7.60;;
79677;SDS011;69145;45.544;10.214;2023-07-20T13:15:04;11.60;;;7.72;;
79677;SDS011;69145;45.544;10.214;2023-07-20T13:17:34;10.38;;;8.52;;
79677;SDS011;69145;45.544;10.214;2023-07-20T13:20:01;8.63;;;5.68;;
79677;SDS011;69145;45.544;10.214;2023-07-20T13:22:29;10.80;;;7.63;;
79677;SDS011;69145;45.544;10.214;2023-07-20T13:24:55;9.23;;;6.88;;
79677;SDS011;69145;45.544;10.214;2023-07-20T13:27:20;8.40;;;6.78;;
79677;SDS011;69145;45.544;10.214;2023-07-20T13:29:46;8.07;;;5.97;;
79677;SDS011;69145;45.544;10.214;2023-07-20T13:32:14;8.98;;;7.03;;
79677;SDS011;69145;45.544;10.214;2023-07-20T13:34:40;7.78;;;5.82;;
79677;SDS011;69145;45.544;10.214;2023-07-20T13:37:06;7.13;;;5.78;;
79677;SDS011;69145;45.544;10.214;2023-07-20T13:39:32;11.00;;;7.00;;
79677;SDS011;69145;45.544;10.214;2023-07-20T13:41:57;9.48;;;6.72;;
79677;SDS011;69145;45.544;10.214;2023-07-20T13:44:22;6.47;;;4.85;;
79677;SDS011;69145;45.544;10.214;2023-07-20T13:46:48;6.60;;;4.90;;
79677;SDS011;69145;45.544;10.214;2023-07-20T13:49:14;6.78;;;4.90;;
79677;SDS011;69145;45.544;10.214;2023-07-20T13:51:41;9.45;;;6.80;;
79677;SDS011;69145;45.544;10.214;2023-07-20T13:54:07;8.43;;;5.80;;
79677;SDS011;69145;45.544;10.214;2023-07-20T13:56:32;7.93;;;5.10;;
79677;SDS011;69145;45.544;10.214;2023-07-20T13:58:58;8.73;;;6.00;;
79677;SDS011;69145;45.544;10.214;2023-07-20T14:01:23;11.00;;;5.75;;
79677;SDS011;69145;45.544;10.214;2023-07-20T14:04:10;7.43;;;5.15;;
79677;SDS011;69145;45.544;10.214;2023-07-20T14:06:37;8.55;;;5.88;;
79677;SDS011;69145;45.544;10.214;2023-07-20T14:09:02;7.32;;;5.68;;
79677;SDS011;69145;45.544;10.214;2023-07-20T14:11:31;9.55;;;5.68;;
79677;SDS011;69145;45.544;10.214;2023-07-20T14:13:56;7.68;;;5.13;;
79677;SDS011;69145;45.544;10.214;2023-07-20T14:16:23;7.72;;;5.82;;
79677;SDS011;69145;45.544;10.214;2023-07-20T14:18:49;7.97;;;5.70;;
79677;SDS011;69145;45.544;10.214;2023-07-20T14:21:18;7.43;;;6.20;;
79677;SDS011;69145;45.544;10.214;2023-07-20T14:23:49;8.45;;;6.35;;
79677;SDS011;69145;45.544;10.214;2023-07-20T14:26:16;9.95;;;5.70;;
79677;SDS011;69145;45.544;10.214;2023-07-20T14:28:41;7.90;;;5.40;;
79677;SDS011;69145;45.544;10.214;2023-07-20T14:31:07;6.90;;;5.35;;
79677;SDS011;69145;45.544;10.214;2023-07-20T14:33:32;8.20;;;5.32;;
79677;SDS011;69145;45.544;10.214;2023-07-20T14:35:57;5.33;;;4.80;;
79677;SDS011;69145;45.544;10.214;2023-07-20T14:38:23;7.15;;;5.55;;
79677;SDS011;69145;45.544;10.214;2023-07-20T14:40:48;8.43;;;5.47;;
79677;SDS011;69145;45.544;10.214;2023-07-20T14:43:13;8.70;;;5.43;;
79677;SDS011;69145;45.544;10.214;2023-07-20T14:45:40;7.65;;;5.70;;